Time;durP1;ratioP1;P1;durP2;ratioP2;P2;SDS_P1;SDS_P2;PMS_P1;PMS_P2;Temp;Humidity;BMP_temperature;BMP_pressure;BME280_temperature;BME280_humidity;BME280_pressure;Samples;Min_cycle;Max_cycle;Signal;HPM_P1;HPM_P2
2021/07/07 00:05:39;;;;;;;2.93;0.77;;;19.90;51.50;;;;;;20213125;28;80137;-68
2021/07/07 00:15:41;;;;;;;2.80;1.00;;;19.80;51.50;;;;;;20228169;28;80741;-68
2021/07/07 00:25:42;;;;;;;2.33;1.05;;;19.80;51.40;;;;;;20207627;28;80996;-68
2021/07/07 00:35:46;;;;;;;3.53;0.80;;;19.80;51.60;;;;;;20229156;28;80047;-68
2021/07/07 00:45:47;;;;;;;3.10;0.75;;;19.70;51.60;;;;;;20226221;28;80543;-68
2021/07/07 00:55:49;;;;;;;6.70;1.25;;;19.70;52.20;;;;;;20222151;28;80819;-68
2021/07/07 01:05:50;;;;;;;2.88;0.85;;;19.50;52.10;;;;;;20206095;28;80741;-68
2021/07/07 01:15:56;;;;;;;3.88;1.20;;;19.30;53.00;;;;;;20227152;28;80669;-68
2021/07/07 01:25:59;;;;;;;3.28;1.27;;;19.20;53.70;;;;;;20211348;28;80972;-69
2021/07/07 01:36:01;;;;;;;5.40;1.02;;;19.10;53.80;;;;;;20205213;28;80459;-69
2021/07/07 01:46:03;;;;;;;2.10;0.80;;;18.90;53.70;;;;;;20207752;28;80989;-68
2021/07/07 01:56:05;;;;;;;3.38;0.90;;;18.70;53.80;;;;;;20223329;28;80110;-68
2021/07/07 02:06:08;;;;;;;3.30;0.93;;;18.70;53.60;;;;;;20202940;28;81258;-68
2021/07/07 02:16:13;;;;;;;5.68;1.00;;;18.60;53.30;;;;;;20228835;28;80752;-68
2021/07/07 02:26:15;;;;;;;3.93;1.20;;;18.40;53.50;;;;;;20232440;28;80191;-68
2021/07/07 02:36:17;;;;;;;3.47;0.63;;;18.30;53.60;;;;;;20237598;28;80626;-68
2021/07/07 02:46:20;;;;;;;2.83;0.80;;;18.30;53.40;;;;;;20233310;28;80870;-69
2021/07/07 02:56:23;;;;;;;4.77;0.93;;;18.20;53.30;;;;;;20229322;28;80688;-70
2021/07/07 03:06:27;;;;;;;3.20;1.10;;;18.10;53.50;;;;;;20213202;28;81241;-69
2021/07/07 03:16:31;;;;;;;2.88;0.70;;;18.10;53.60;;;;;;20218382;28;80314;-69
2021/07/07 03:26:34;;;;;;;4.43;1.63;;;17.90;54.20;;;;;;20212212;28;81143;-70
2021/07/07 03:36:37;;;;;;;4.28;1.05;;;17.90;54.10;;;;;;20234053;28;80090;-69
2021/07/07 03:46:39;;;;;;;2.30;0.97;;;17.80;55.20;;;;;;20229302;28;80592;-73
2021/07/07 03:56:42;;;;;;;3.43;1.17;;;17.50;56.50;;;;;;20231233;28;80746;-73
2021/07/07 04:06:45;;;;;;;3.08;0.85;;;17.40;57.20;;;;;;20213799;28;80861;-73
2021/07/07 04:16:53;;;;;;;2.67;0.80;;;17.20;57.90;;;;;;20216245;28;80680;-71
2021/07/07 04:26:55;;;;;;;5.18;1.65;;;17.10;58.20;;;;;;20230859;28;80799;-73
2021/07/07 04:37:00;;;;;;;2.05;0.98;;;17.10;58.30;;;;;;20226896;28;80876;-73
2021/07/07 04:47:04;;;;;;;2.90;1.40;;;17.00;58.70;;;;;;20224696;28;80693;-72
2021/07/07 04:57:07;;;;;;;4.95;1.65;;;16.90;59.00;;;;;;20227406;28;80751;-72
2021/07/07 05:07:09;;;;;;;4.93;1.55;;;16.90;59.30;;;;;;20205542;28;80701;-72
2021/07/07 05:17:13;;;;;;;4.38;1.48;;;16.80;59.90;;;;;;20210641;28;80739;-73
2021/07/07 05:27:15;;;;;;;41.77;24.53;;;16.80;60.10;;;;;;20203986;28;80730;-74
2021/07/07 05:37:20;;;;;;;32.53;16.13;;;16.90;60.10;;;;;;20209099;28;83660;-74
2021/07/07 05:47:25;;;;;;;4.75;2.60;;;17.00;59.90;;;;;;20185356;28;83255;-72
2021/07/07 05:57:48;;;;;;;2.47;1.45;;;17.00;59.90;;;;;;20204424;28;83388;-71
2021/07/07 06:07:50;;;;;;;4.05;1.75;;;16.90;60.20;;;;;;20209798;28;80718;-72
2021/07/07 06:17:53;;;;;;;4.78;1.73;;;17.00;60.00;;;;;;20222277;28;80133;-72
2021/07/07 06:27:57;;;;;;;6.43;2.00;;;17.10;60.00;;;;;;20203998;28;80876;-69
2021/07/07 06:37:59;;;;;;;7.73;1.60;;;17.10;59.90;;;;;;20218975;28;80405;-71
2021/07/07 06:48:01;;;;;;;5.85;1.75;;;17.40;59.90;;;;;;20215472;28;81495;-72
2021/07/07 06:58:10;;;;;;;8.70;5.70;;;17.50;59.60;;;;;;20216465;28;81980;-71
2021/07/07 07:08:15;;;;;;;25.35;15.77;;;17.70;59.20;;;;;;20227418;28;80920;-75
2021/07/07 07:18:20;;;;;;;7.50;2.97;;;17.90;59.00;;;;;;20198026;28;83146;-75
2021/07/07 07:28:22;;;;;;;4.95;2.10;;;18.00;58.30;;;;;;20229349;28;83301;-72
2021/07/07 07:38:44;;;;;;;9.10;3.70;;;18.30;57.10;;;;;;20232194;28;81428;-72
2021/07/07 07:48:46;;;;;;;11.23;2.70;;;18.50;56.20;;;;;;20231023;28;81308;-72
2021/07/07 07:58:49;;;;;;;;;;;18.70;55.00;;;;;;20232032;28;81742;-72
2021/07/07 08:08:54;;;;;;;6.68;1.58;;;19.00;54.10;;;;;;20245317;28;80707;-73
2021/07/07 08:18:55;;;;;;;6.20;1.95;;;19.20;53.40;;;;;;20212346;28;80161;-73
2021/07/07 08:28:58;;;;;;;4.07;1.53;;;19.50;52.30;;;;;;20224778;28;80160;-73
2021/07/07 08:39:00;;;;;;;4.73;1.70;;;19.60;51.30;;;;;;20206412;28;81251;-72
2021/07/07 08:49:03;;;;;;;6.10;1.30;;;19.90;50.00;;;;;;20235394;28;80554;-73
2021/07/07 08:59:06;;;;;;;5.95;2.60;;;20.30;49.70;;;;;;20201862;28;81510;-72
2021/07/07 09:09:08;;;;;;;4.80;1.37;;;20.50;48.10;;;;;;20220184;28;80628;-70
2021/07/07 09:19:16;;;;;;;;;;;20.70;46.80;;;;;;20219845;28;80092;-68
2021/07/07 09:29:39;;;;;;;1.33;0.77;;;21.00;45.30;;;;;;20225491;28;80874;-68
2021/07/07 09:39:42;;;;;;;5.65;1.17;;;21.60;43.90;;;;;;20222905;28;80095;-69
2021/07/07 09:49:47;;;;;;;2.97;0.60;;;22.30;43.50;;;;;;20183780;28;81123;-69
2021/07/07 09:59:50;;;;;;;2.33;1.08;;;23.10;39.90;;;;;;20220021;28;80912;-68
2021/07/07 10:09:52;;;;;;;1.05;0.60;;;23.90;39.90;;;;;;20225626;28;80551;-69
2021/07/07 10:19:55;;;;;;;2.67;1.05;;;24.60;37.40;;;;;;20204107;28;81105;-69
2021/07/07 10:29:57;;;;;;;1.75;0.60;;;25.00;36.90;;;;;;20203578;28;81253;-68
2021/07/07 10:40:28;;;;;;;5.07;2.45;;;25.50;35.70;;;;;;20187385;28;81534;-68
2021/07/07 10:50:34;;;;;;;3.35;1.33;;;25.90;34.00;;;;;;20236011;28;81692;-68
2021/07/07 11:00:41;;;;;;;2.75;1.42;;;27.20;33.30;;;;;;20233504;28;80986;-68
2021/07/07 11:10:55;;;;;;;1.80;1.10;;;32.20;27.10;;;;;;20230744;28;81009;-68
2021/07/07 11:21:02;;;;;;;1.85;0.70;;;33.00;26.00;;;;;;20217555;28;80931;-69
2021/07/07 11:31:05;;;;;;;2.88;0.80;;;32.10;26.00;;;;;;20211405;28;81450;-67
2021/07/07 11:41:14;;;;;;;3.53;1.10;;;32.40;25.40;;;;;;20207977;28;81007;-67
2021/07/07 11:51:20;;;;;;;3.53;1.30;;;33.80;25.70;;;;;;20224562;28;80725;-68
2021/07/07 12:01:33;;;;;;;2.47;1.00;;;37.00;22.80;;;;;;20226133;28;80276;-69
2021/07/07 12:11:35;;;;;;;3.30;0.90;;;38.80;20.90;;;;;;20231998;28;80847;-69
2021/07/07 12:21:41;;;;;;;4.03;1.20;;;40.20;19.80;;;;;;20209829;28;81816;-70
2021/07/07 12:31:45;;;;;;;4.57;1.30;;;41.70;18.70;;;;;;20211700;28;81530;-71
2021/07/07 12:41:53;;;;;;;2.78;1.75;;;42.20;17.90;;;;;;20221000;28;80932;-71
2021/07/07 12:52:16;;;;;;;2.17;1.00;;;42.40;17.40;;;;;;20227366;28;81007;-71
2021/07/07 13:02:18;;;;;;;2.90;1.13;;;43.20;17.20;;;;;;20208005;28;80753;-74
2021/07/07 13:12:26;;;;;;;2.33;1.00;;;44.30;16.80;;;;;;20232563;28;80712;-71
2021/07/07 13:22:29;;;;;;;3.00;0.70;;;42.40;17.20;;;;;;20228620;28;81708;-72
2021/07/07 13:32:31;;;;;;;1.92;1.05;;;38.60;19.00;;;;;;20201586;28;80572;-71
2021/07/07 13:42:35;;;;;;;2.83;1.08;;;38.20;20.40;;;;;;20207758;28;80588;-71
2021/07/07 13:52:37;;;;;;;2.63;1.13;;;37.00;21.20;;;;;;20222084;28;80895;-73
2021/07/07 14:02:41;;;;;;;7.35;4.85;;;34.40;23.90;;;;;;20198709;28;80740;-70
2021/07/07 14:12:42;;;;;;;2.70;0.57;;;33.00;24.90;;;;;;20227260;28;80824;-70
2021/07/07 14:22:44;;;;;;;3.10;1.77;;;32.00;23.80;;;;;;20192687;28;80118;-71
2021/07/07 14:32:47;;;;;;;1.85;0.90;;;31.60;26.10;;;;;;20217536;28;81233;-71
2021/07/07 14:42:49;;;;;;;1.55;0.75;;;31.40;25.90;;;;;;20215110;28;81522;-70
2021/07/07 14:52:51;;;;;;;2.65;0.85;;;31.10;25.70;;;;;;20248230;28;81309;-70
2021/07/07 15:02:53;;;;;;;2.55;0.75;;;30.80;26.00;;;;;;20229086;28;80057;-71
2021/07/07 15:12:55;;;;;;;2.40;0.88;;;30.70;26.50;;;;;;20189710;28;81881;-69
2021/07/07 15:22:56;;;;;;;1.73;0.68;;;30.50;26.60;;;;;;20213573;28;81165;-70
2021/07/07 15:32:58;;;;;;;1.17;0.40;;;30.30;26.70;;;;;;20215070;28;80805;-71
2021/07/07 15:43:00;;;;;;;14.90;9.75;;;30.00;26.10;;;;;;20212183;28;80437;-71
2021/07/07 15:53:03;;;;;;;4.53;2.22;;;29.60;26.00;;;;;;20212490;28;82430;-71
2021/07/07 16:03:06;;;;;;;5.43;1.85;;;29.40;27.00;;;;;;20225645;28;81707;-72
2021/07/07 16:13:09;;;;;;;3.28;1.40;;;29.40;27.20;;;;;;20208621;28;80406;-72
2021/07/07 16:23:11;;;;;;;1.70;0.82;;;29.30;27.60;;;;;;20250158;28;81100;-71
2021/07/07 16:33:13;;;;;;;2.53;0.77;;;29.10;27.50;;;;;;20238388;28;80685;-72
2021/07/07 16:43:15;;;;;;;5.70;1.10;;;29.00;27.40;;;;;;20216976;28;80683;-71
2021/07/07 16:53:17;;;;;;;1.88;0.50;;;28.90;27.70;;;;;;20261171;28;80770;-72
2021/07/07 17:03:19;;;;;;;6.63;1.02;;;28.60;28.40;;;;;;20247271;28;81278;-72
2021/07/07 17:13:23;;;;;;;1.13;0.45;;;28.40;28.90;;;;;;20189974;28;80754;-71
2021/07/07 17:23:25;;;;;;;1.65;0.70;;;28.10;27.80;;;;;;20205353;28;80868;-72
2021/07/07 17:33:28;;;;;;;1.95;0.80;;;27.90;28.70;;;;;;20206590;28;80323;-73
2021/07/07 17:43:31;;;;;;;1.45;0.43;;;27.80;28.70;;;;;;20221260;28;80813;-72
2021/07/07 17:53:33;;;;;;;3.20;1.65;;;27.60;28.00;;;;;;20237357;28;80543;-70
2021/07/07 18:03:35;;;;;;;1.38;0.55;;;27.40;28.30;;;;;;20216887;28;81473;-71
2021/07/07 18:13:37;;;;;;;3.90;1.15;;;27.10;28.30;;;;;;20210760;28;80690;-70
2021/07/07 18:23:38;;;;;;;1.60;0.70;;;26.90;30.10;;;;;;20194057;28;80650;-69
2021/07/07 18:33:38;;;;;;;;;;;26.70;29.30;;;;;;20189992;28;81191;-69
2021/07/07 18:43:41;;;;;;;1.20;0.60;;;26.50;28.70;;;;;;20230527;28;80595;-68
2021/07/07 18:53:42;;;;;;;2.58;0.60;;;26.30;29.20;;;;;;20219979;28;80399;-70
2021/07/07 19:03:43;;;;;;;1.67;0.70;;;26.00;29.20;;;;;;20231059;28;80495;-69
2021/07/07 19:13:44;;;;;;;11.02;6.68;;;25.80;28.70;;;;;;20203819;28;81281;-71
2021/07/07 19:23:46;;;;;;;0.82;0.30;;;25.60;28.50;;;;;;20211458;28;80696;-71
2021/07/07 19:33:47;;;;;;;1.23;0.47;;;25.40;28.80;;;;;;20213640;28;81096;-69
2021/07/07 19:43:49;;;;;;;23.20;12.60;;;25.10;29.00;;;;;;20211556;28;81028;-69
2021/07/07 19:53:51;;;;;;;5.75;1.08;;;25.00;30.10;;;;;;20219149;28;82706;-69
2021/07/07 20:03:53;;;;;;;4.00;0.82;;;24.70;30.70;;;;;;20207773;28;81862;-73
2021/07/07 20:13:55;;;;;;;9.60;6.18;;;24.60;31.10;;;;;;20204644;28;80717;-71
2021/07/07 20:23:57;;;;;;;24.17;18.20;;;24.40;31.10;;;;;;20192024;28;80904;-72
2021/07/07 20:33:58;;;;;;;7.60;4.40;;;24.20;31.50;;;;;;20185487;28;83958;-73
2021/07/07 20:44:00;;;;;;;8.18;5.05;;;24.10;31.70;;;;;;20205735;28;83343;-71
2021/07/07 20:54:02;;;;;;;19.42;13.07;;;23.90;31.70;;;;;;20212664;28;80696;-70
2021/07/07 21:04:05;;;;;;;3.05;1.30;;;23.80;31.80;;;;;;20208302;28;83833;-69
2021/07/07 21:14:07;;;;;;;4.53;1.92;;;23.70;32.40;;;;;;20214866;28;83135;-73
2021/07/07 21:24:10;;;;;;;1.50;0.55;;;23.60;32.80;;;;;;20190943;28;80740;-70
2021/07/07 21:34:11;;;;;;;;;;;23.40;32.90;;;;;;20197577;28;81036;-69
2021/07/07 21:44:13;;;;;;;3.78;1.15;;;23.20;32.80;;;;;;20228297;28;80850;-69
2021/07/07 21:54:15;;;;;;;;;;;23.00;33.50;;;;;;20221432;28;80114;-68
2021/07/07 22:04:17;;;;;;;4.63;1.07;;;22.90;33.50;;;;;;20239597;28;82296;-70
2021/07/07 22:14:19;;;;;;;4.65;1.10;;;22.70;33.40;;;;;;20206999;28;81306;-69
2021/07/07 22:24:24;;;;;;;5.00;1.10;;;22.40;34.70;;;;;;20203859;28;80048;-69
2021/07/07 22:34:26;;;;;;;5.53;1.23;;;22.30;35.00;;;;;;20213158;28;80252;-69
2021/07/07 22:44:27;;;;;;;;;;;22.00;35.50;;;;;;20227604;28;80643;-70
2021/07/07 22:54:29;;;;;;;2.15;0.70;;;21.70;35.40;;;;;;20234453;28;80491;-69
2021/07/07 23:04:31;;;;;;;4.93;1.37;;;21.70;35.90;;;;;;20212772;28;81424;-69
2021/07/07 23:14:33;;;;;;;6.43;1.08;;;21.60;36.10;;;;;;20217389;28;81298;-68
2021/07/07 23:24:35;;;;;;;5.23;1.20;;;21.40;36.90;;;;;;20211123;28;80694;-69
2021/07/07 23:34:38;;;;;;;;;;;21.10;37.80;;;;;;20228797;28;80965;-69
2021/07/07 23:44:40;;;;;;;2.00;0.63;;;21.00;38.10;;;;;;20237128;28;79458;-69
2021/07/07 23:54:42;;;;;;;6.50;1.00;;;21.10;37.70;;;;;;20231156;28;80102;-69
